sensor_id;sensor_type;location;lat;lon;timestamp;temperature;humidity
18131;DHT22;9191;54.324;10.126;2022-07-18T00:00:02;16.80;99.90
18131;DHT22;9191;54.324;10.126;2022-07-18T00:02:29;16.80;99.90
18131;DHT22;9191;54.324;10.126;2022-07-18T00:04:56;16.80;99.90
18131;DHT22;9191;54.324;10.126;2022-07-18T00:07:22;16.70;99.90
18131;DHT22;9191;54.324;10.126;2022-07-18T00:09:50;16.70;99.90
18131;DHT22;9191;54.324;10.126;2022-07-18T00:12:17;16.70;99.90
18131;DHT22;9191;54.324;10.126;2022-07-18T00:14:44;16.70;99.90
18131;DHT22;9191;54.324;10.126;2022-07-18T00:17:11;16.60;99.90
18131;DHT22;9191;54.324;10.126;2022-07-18T00:19:37;16.60;99.90
18131;DHT22;9191;54.324;10.126;2022-07-18T00:22:04;16.60;99.90
18131;DHT22;9191;54.324;10.126;2022-07-18T00:24:31;16.60;99.90
18131;DHT22;9191;54.324;10.126;2022-07-18T00:26:59;16.60;99.90
18131;DHT22;9191;54.324;10.126;2022-07-18T00:29:26;16.50;99.90
18131;DHT22;9191;54.324;10.126;2022-07-18T00:31:52;16.60;99.90
18131;DHT22;9191;54.324;10.126;2022-07-18T00:34:19;16.50;99.90
18131;DHT22;9191;54.324;10.126;2022-07-18T00:36:46;16.60;99.90
18131;DHT22;9191;54.324;10.126;2022-07-18T00:39:12;16.40;99.90
18131;DHT22;9191;54.324;10.126;2022-07-18T00:41:39;16.40;99.90
18131;DHT22;9191;54.324;10.126;2022-07-18T00:44:07;16.40;99.90
18131;DHT22;9191;54.324;10.126;2022-07-18T00:46:41;16.30;99.90
18131;DHT22;9191;54.324;10.126;2022-07-18T00:49:08;16.20;99.90
18131;DHT22;9191;54.324;10.126;2022-07-18T00:51:34;16.20;99.90
18131;DHT22;9191;54.324;10.126;2022-07-18T00:54:03;16.20;99.90
18131;DHT22;9191;54.324;10.126;2022-07-18T00:56:30;16.20;99.90
18131;DHT22;9191;54.324;10.126;2022-07-18T00:58:57;16.10;99.90
18131;DHT22;9191;54.324;10.126;2022-07-18T01:01:25;16.20;99.90
18131;DHT22;9191;54.324;10.126;2022-07-18T01:04:09;16.10;99.90
18131;DHT22;9191;54.324;10.126;2022-07-18T01:06:36;16.10;99.90
18131;DHT22;9191;54.324;10.126;2022-07-18T01:09:03;16.10;99.90
18131;DHT22;9191;54.324;10.126;2022-07-18T01:11:30;16.00;99.90
18131;DHT22;9191;54.324;10.126;2022-07-18T01:13:56;16.10;99.90
18131;DHT22;9191;54.324;10.126;2022-07-18T01:16:24;16.10;99.90
18131;DHT22;9191;54.324;10.126;2022-07-18T01:18:51;16.10;99.90
18131;DHT22;9191;54.324;10.126;2022-07-18T01:21:19;16.10;99.90
18131;DHT22;9191;54.324;10.126;2022-07-18T01:23:46;16.10;99.90
18131;DHT22;9191;54.324;10.126;2022-07-18T01:26:13;16.00;99.90
18131;DHT22;9191;54.324;10.126;2022-07-18T01:28:40;16.00;99.90
18131;DHT22;9191;54.324;10.126;2022-07-18T01:31:07;16.00;99.90
18131;DHT22;9191;54.324;10.126;2022-07-18T01:33:35;16.00;99.90
18131;DHT22;9191;54.324;10.126;2022-07-18T01:36:02;16.00;99.90
18131;DHT22;9191;54.324;10.126;2022-07-18T01:38:31;16.10;99.90
18131;DHT22;9191;54.324;10.126;2022-07-18T01:40:58;16.20;99.90
18131;DHT22;9191;54.324;10.126;2022-07-18T01:43:25;16.10;99.90
18131;DHT22;9191;54.324;10.126;2022-07-18T01:45:52;16.20;99.90
18131;DHT22;9191;54.324;10.126;2022-07-18T01:48:19;16.20;99.90
18131;DHT22;9191;54.324;10.126;2022-07-18T01:50:48;16.30;99.90
18131;DHT22;9191;54.324;10.126;2022-07-18T01:53:15;16.40;99.90
18131;DHT22;9191;54.324;10.126;2022-07-18T01:55:43;16.50;99.90
18131;DHT22;9191;54.324;10.126;2022-07-18T01:58:10;16.60;99.90
18131;DHT22;9191;54.324;10.126;2022-07-18T02:00:36;16.60;99.90
18131;DHT22;9191;54.324;10.126;2022-07-18T02:03:03;16.70;99.90
18131;DHT22;9191;54.324;10.126;2022-07-18T02:05:30;16.70;99.90
18131;DHT22;9191;54.324;10.126;2022-07-18T02:07:56;16.70;99.90
18131;DHT22;9191;54.324;10.126;2022-07-18T02:10:23;16.60;99.90
18131;DHT22;9191;54.324;10.126;2022-07-18T02:12:51;16.70;99.90
18131;DHT22;9191;54.324;10.126;2022-07-18T02:15:18;16.60;99.90
18131;DHT22;9191;54.324;10.126;2022-07-18T02:17:45;16.60;99.90
18131;DHT22;9191;54.324;10.126;2022-07-18T02:20:12;16.60;99.90
18131;DHT22;9191;54.324;10.126;2022-07-18T02:22:39;16.70;99.90
18131;DHT22;9191;54.324;10.126;2022-07-18T02:25:06;16.70;99.90
18131;DHT22;9191;54.324;10.126;2022-07-18T02:27:33;16.70;99.90
18131;DHT22;9191;54.324;10.126;2022-07-18T02:30:01;16.80;99.90
18131;DHT22;9191;54.324;10.126;2022-07-18T02:32:27;16.80;99.90
18131;DHT22;9191;54.324;10.126;2022-07-18T02:34:54;16.80;99.90
18131;DHT22;9191;54.324;10.126;2022-07-18T02:37:21;16.90;99.90
18131;DHT22;9191;54.324;10.126;2022-07-18T02:39:47;16.90;99.90
18131;DHT22;9191;54.324;10.126;2022-07-18T02:42:14;16.70;99.90
18131;DHT22;9191;54.324;10.126;2022-07-18T02:44:41;16.70;99.90
18131;DHT22;9191;54.324;10.126;2022-07-18T02:47:09;16.80;99.90
18131;DHT22;9191;54.324;10.126;2022-07-18T02:49:35;16.70;99.90
18131;DHT22;9191;54.324;10.126;2022-07-18T02:52:05;16.70;99.90
18131;DHT22;9191;54.324;10.126;2022-07-18T02:54:32;16.70;99.90
18131;DHT22;9191;54.324;10.126;2022-07-18T02:56:59;16.70;99.90
18131;DHT22;9191;54.324;10.126;2022-07-18T02:59:26;16.60;99.90
18131;DHT22;9191;54.324;10.126;2022-07-18T03:01:54;16.60;99.90
18131;DHT22;9191;54.324;10.126;2022-07-18T03:04:22;16.60;99.90
18131;DHT22;9191;54.324;10.126;2022-07-18T03:06:49;16.50;99.90
18131;DHT22;9191;54.324;10.126;2022-07-18T03:09:15;16.60;99.90
18131;DHT22;9191;54.324;10.126;2022-07-18T03:11:42;16.60;99.90
18131;DHT22;9191;54.324;10.126;2022-07-18T03:14:09;16.50;99.90
18131;DHT22;9191;54.324;10.126;2022-07-18T03:16:35;16.50;99.90
18131;DHT22;9191;54.324;10.126;2022-07-18T03:19:02;16.50;99.90
18131;DHT22;9191;54.324;10.126;2022-07-18T03:21:30;16.50;99.90
18131;DHT22;9191;54.324;10.126;2022-07-18T03:23:57;16.50;99.90
18131;DHT22;9191;54.324;10.126;2022-07-18T03:26:24;16.50;99.90
18131;DHT22;9191;54.324;10.126;2022-07-18T03:28:50;16.60;99.90
18131;DHT22;9191;54.324;10.126;2022-07-18T03:31:17;16.60;99.90
18131;DHT22;9191;54.324;10.126;2022-07-18T03:33:44;16.60;99.90
18131;DHT22;9191;54.324;10.126;2022-07-18T03:36:10;16.60;99.90
18131;DHT22;9191;54.324;10.126;2022-07-18T03:38:38;16.60;99.90
18131;DHT22;9191;54.324;10.126;2022-07-18T03:41:08;16.70;99.90
18131;DHT22;9191;54.324;10.126;2022-07-18T03:43:35;16.70;99.90
18131;DHT22;9191;54.324;10.126;2022-07-18T03:46:02;16.70;99.90
18131;DHT22;9191;54.324;10.126;2022-07-18T03:48:28;16.70;99.90
18131;DHT22;9191;54.324;10.126;2022-07-18T03:50:55;16.70;99.90
18131;DHT22;9191;54.324;10.126;2022-07-18T03:53:22;16.70;99.90
18131;DHT22;9191;54.324;10.126;2022-07-18T03:55:50;16.80;99.90
18131;DHT22;9191;54.324;10.126;2022-07-18T03:58:16;16.70;99.90
18131;DHT22;9191;54.324;10.126;2022-07-18T04:00:43;16.80;99.90
18131;DHT22;9191;54.324;10.126;2022-07-18T04:03:10;16.80;99.90
18131;DHT22;9191;54.324;10.126;2022-07-18T04:05:36;16.70;99.90
18131;DHT22;9191;54.324;10.126;2022-07-18T04:08:03;16.70;99.90
18131;DHT22;9191;54.324;10.126;2022-07-18T04:10:30;16.70;99.90
18131;DHT22;9191;54.324;10.126;2022-07-18T04:12:58;16.80;99.90
18131;DHT22;9191;54.324;10.126;2022-07-18T04:15:25;16.80;99.90
18131;DHT22;9191;54.324;10.126;2022-07-18T04:17:52;16.80;99.90
18131;DHT22;9191;54.324;10.126;2022-07-18T04:20:19;16.80;99.90
18131;DHT22;9191;54.324;10.126;2022-07-18T04:22:47;16.80;99.90
18131;DHT22;9191;54.324;10.126;2022-07-18T04:25:13;17.00;99.90
18131;DHT22;9191;54.324;10.126;2022-07-18T04:27:40;17.00;99.90
18131;DHT22;9191;54.324;10.126;2022-07-18T04:30:09;17.20;99.90
18131;DHT22;9191;54.324;10.126;2022-07-18T04:32:36;17.30;99.90
18131;DHT22;9191;54.324;10.126;2022-07-18T04:35:03;17.30;99.90
18131;DHT22;9191;54.324;10.126;2022-07-18T04:37:29;17.20;99.90
18131;DHT22;9191;54.324;10.126;2022-07-18T04:39:57;17.40;99.90
18131;DHT22;9191;54.324;10.126;2022-07-18T04:42:24;17.30;99.90
18131;DHT22;9191;54.324;10.126;2022-07-18T04:44:50;17.20;99.90
18131;DHT22;9191;54.324;10.126;2022-07-18T04:47:18;17.20;99.90
18131;DHT22;9191;54.324;10.126;2022-07-18T04:49:45;17.30;99.90
18131;DHT22;9191;54.324;10.126;2022-07-18T04:52:12;17.30;99.90
18131;DHT22;9191;54.324;10.126;2022-07-18T04:54:38;17.30;99.90
18131;DHT22;9191;54.324;10.126;2022-07-18T04:57:05;17.40;99.90
18131;DHT22;9191;54.324;10.126;2022-07-18T04:59:32;17.40;99.90
18131;DHT22;9191;54.324;10.126;2022-07-18T05:01:58;17.50;99.90
18131;DHT22;9191;54.324;10.126;2022-07-18T05:04:26;17.50;99.90
18131;DHT22;9191;54.324;10.126;2022-07-18T05:06:54;17.70;99.90
18131;DHT22;9191;54.324;10.126;2022-07-18T05:09:20;17.70;99.90
18131;DHT22;9191;54.324;10.126;2022-07-18T05:11:47;17.80;99.90
18131;DHT22;9191;54.324;10.126;2022-07-18T05:14:13;17.80;99.90
18131;DHT22;9191;54.324;10.126;2022-07-18T05:16:40;18.00;99.90
18131;DHT22;9191;54.324;10.126;2022-07-18T05:19:07;18.10;99.90
18131;DHT22;9191;54.324;10.126;2022-07-18T05:21:35;18.10;99.90
18131;DHT22;9191;54.324;10.126;2022-07-18T05:24:02;18.10;99.90
18131;DHT22;9191;54.324;10.126;2022-07-18T05:26:28;18.20;99.90
18131;DHT22;9191;54.324;10.126;2022-07-18T05:28:55;18.30;99.90
18131;DHT22;9191;54.324;10.126;2022-07-18T05:31:22;18.20;99.90
18131;DHT22;9191;54.324;10.126;2022-07-18T05:33:48;18.30;99.90
18131;DHT22;9191;54.324;10.126;2022-07-18T05:36:15;18.40;99.90
18131;DHT22;9191;54.324;10.126;2022-07-18T05:38:43;18.30;99.90
18131;DHT22;9191;54.324;10.126;2022-07-18T05:41:10;18.40;99.90
18131;DHT22;9191;54.324;10.126;2022-07-18T05:43:36;18.40;99.90
18131;DHT22;9191;54.324;10.126;2022-07-18T05:46:03;18.40;99.90
18131;DHT22;9191;54.324;10.126;2022-07-18T05:48:30;18.50;99.90
18131;DHT22;9191;54.324;10.126;2022-07-18T05:50:56;18.60;99.90
18131;DHT22;9191;54.324;10.126;2022-07-18T05:53:23;18.60;99.90
18131;DHT22;9191;54.324;10.126;2022-07-18T05:55:51;18.70;99.90
18131;DHT22;9191;54.324;10.126;2022-07-18T05:58:18;18.80;99.90
18131;DHT22;9191;54.324;10.126;2022-07-18T06:00:44;18.90;99.90
18131;DHT22;9191;54.324;10.126;2022-07-18T06:03:11;18.70;99.90
18131;DHT22;9191;54.324;10.126;2022-07-18T06:05:38;18.60;99.90
18131;DHT22;9191;54.324;10.126;2022-07-18T06:08:05;18.60;99.90
18131;DHT22;9191;54.324;10.126;2022-07-18T06:10:31;18.50;99.90
18131;DHT22;9191;54.324;10.126;2022-07-18T06:13:00;18.40;99.90
18131;DHT22;9191;54.324;10.126;2022-07-18T06:15:26;18.40;99.90
18131;DHT22;9191;54.324;10.126;2022-07-18T06:17:53;18.50;99.90
18131;DHT22;9191;54.324;10.126;2022-07-18T06:20:19;18.60;99.90
18131;DHT22;9191;54.324;10.126;2022-07-18T06:22:46;18.60;99.90
18131;DHT22;9191;54.324;10.126;2022-07-18T06:25:13;18.70;99.90
18131;DHT22;9191;54.324;10.126;2022-07-18T06:27:39;18.80;99.90
18131;DHT22;9191;54.324;10.126;2022-07-18T06:30:08;19.00;99.90
18131;DHT22;9191;54.324;10.126;2022-07-18T06:32:35;19.20;99.90
18131;DHT22;9191;54.324;10.126;2022-07-18T06:35:02;19.30;99.90
18131;DHT22;9191;54.324;10.126;2022-07-18T06:37:28;19.50;99.90
18131;DHT22;9191;54.324;10.126;2022-07-18T06:39:55;19.60;99.90
18131;DHT22;9191;54.324;10.126;2022-07-18T06:42:22;19.70;99.90
18131;DHT22;9191;54.324;10.126;2022-07-18T06:44:48;19.60;99.90
18131;DHT22;9191;54.324;10.126;2022-07-18T06:47:16;19.70;99.90
18131;DHT22;9191;54.324;10.126;2022-07-18T06:49:43;19.70;99.90
18131;DHT22;9191;54.324;10.126;2022-07-18T06:52:10;19.80;99.90
18131;DHT22;9191;54.324;10.126;2022-07-18T06:54:37;19.80;99.90
18131;DHT22;9191;54.324;10.126;2022-07-18T06:57:05;19.70;99.90
18131;DHT22;9191;54.324;10.126;2022-07-18T06:59:34;19.80;99.90
18131;DHT22;9191;54.324;10.126;2022-07-18T07:02:01;19.80;99.90
18131;DHT22;9191;54.324;10.126;2022-07-18T07:04:29;20.00;99.90
18131;DHT22;9191;54.324;10.126;2022-07-18T07:06:56;20.20;99.90
18131;DHT22;9191;54.324;10.126;2022-07-18T07:09:25;20.30;99.90
18131;DHT22;9191;54.324;10.126;2022-07-18T07:11:51;20.40;99.90
18131;DHT22;9191;54.324;10.126;2022-07-18T07:14:18;20.60;99.90
18131;DHT22;9191;54.324;10.126;2022-07-18T07:16:44;20.80;99.90
18131;DHT22;9191;54.324;10.126;2022-07-18T07:19:11;20.80;99.90
18131;DHT22;9191;54.324;10.126;2022-07-18T07:21:39;20.80;99.90
18131;DHT22;9191;54.324;10.126;2022-07-18T07:24:06;20.80;99.90
18131;DHT22;9191;54.324;10.126;2022-07-18T07:26:33;20.90;99.90
18131;DHT22;9191;54.324;10.126;2022-07-18T07:28:59;21.10;99.90
18131;DHT22;9191;54.324;10.126;2022-07-18T07:31:26;21.40;99.90
18131;DHT22;9191;54.324;10.126;2022-07-18T07:33:53;21.40;99.90
18131;DHT22;9191;54.324;10.126;2022-07-18T07:36:19;21.50;99.90
18131;DHT22;9191;54.324;10.126;2022-07-18T07:38:48;21.70;99.90
18131;DHT22;9191;54.324;10.126;2022-07-18T07:41:15;21.80;99.90
18131;DHT22;9191;54.324;10.126;2022-07-18T07:43:41;21.90;99.90
18131;DHT22;9191;54.324;10.126;2022-07-18T07:46:08;22.00;99.90
18131;DHT22;9191;54.324;10.126;2022-07-18T07:48:36;21.90;99.90
18131;DHT22;9191;54.324;10.126;2022-07-18T07:51:02;22.20;99.90
18131;DHT22;9191;54.324;10.126;2022-07-18T07:53:29;22.10;99.90
18131;DHT22;9191;54.324;10.126;2022-07-18T07:55:57;22.20;99.90
18131;DHT22;9191;54.324;10.126;2022-07-18T07:58:24;22.20;99.90
18131;DHT22;9191;54.324;10.126;2022-07-18T08:00:51;22.30;99.90
18131;DHT22;9191;54.324;10.126;2022-07-18T08:03:17;22.50;99.90
18131;DHT22;9191;54.324;10.126;2022-07-18T08:05:44;22.70;99.90
18131;DHT22;9191;54.324;10.126;2022-07-18T08:08:11;23.00;99.90
18131;DHT22;9191;54.324;10.126;2022-07-18T08:10:38;23.00;99.90
18131;DHT22;9191;54.324;10.126;2022-07-18T08:13:06;22.90;99.90
18131;DHT22;9191;54.324;10.126;2022-07-18T08:15:33;22.80;99.90
18131;DHT22;9191;54.324;10.126;2022-07-18T08:18:01;22.80;99.90
18131;DHT22;9191;54.324;10.126;2022-07-18T08:20:27;22.80;99.90
18131;DHT22;9191;54.324;10.126;2022-07-18T08:22:56;22.90;99.90
18131;DHT22;9191;54.324;10.126;2022-07-18T08:25:23;22.90;99.90
18131;DHT22;9191;54.324;10.126;2022-07-18T08:27:50;23.00;99.90
18131;DHT22;9191;54.324;10.126;2022-07-18T08:30:19;23.20;99.90
18131;DHT22;9191;54.324;10.126;2022-07-18T08:32:47;23.20;99.90
18131;DHT22;9191;54.324;10.126;2022-07-18T08:35:14;23.30;99.90
18131;DHT22;9191;54.324;10.126;2022-07-18T08:37:41;23.30;99.90
18131;DHT22;9191;54.324;10.126;2022-07-18T08:40:08;23.50;99.90
18131;DHT22;9191;54.324;10.126;2022-07-18T08:42:35;23.70;99.90
18131;DHT22;9191;54.324;10.126;2022-07-18T08:45:02;24.00;99.90
18131;DHT22;9191;54.324;10.126;2022-07-18T08:47:31;24.90;99.90
18131;DHT22;9191;54.324;10.126;2022-07-18T08:49:58;25.50;99.90
18131;DHT22;9191;54.324;10.126;2022-07-18T08:52:25;26.20;99.90
18131;DHT22;9191;54.324;10.126;2022-07-18T08:54:52;26.60;99.90
18131;DHT22;9191;54.324;10.126;2022-07-18T08:57:19;26.50;99.90
18131;DHT22;9191;54.324;10.126;2022-07-18T08:59:46;26.70;99.90
18131;DHT22;9191;54.324;10.126;2022-07-18T09:02:12;26.80;99.90
18131;DHT22;9191;54.324;10.126;2022-07-18T09:04:41;27.50;99.90
18131;DHT22;9191;54.324;10.126;2022-07-18T09:07:09;27.80;99.90
18131;DHT22;9191;54.324;10.126;2022-07-18T09:09:36;27.80;99.90
18131;DHT22;9191;54.324;10.126;2022-07-18T09:12:03;27.40;99.90
18131;DHT22;9191;54.324;10.126;2022-07-18T09:14:31;27.00;99.90
18131;DHT22;9191;54.324;10.126;2022-07-18T09:17:02;26.90;99.90
18131;DHT22;9191;54.324;10.126;2022-07-18T09:19:29;26.50;99.90
18131;DHT22;9191;54.324;10.126;2022-07-18T09:24:50;26.30;99.90
18131;DHT22;9191;54.324;10.126;2022-07-18T09:27:27;26.60;99.90
18131;DHT22;9191;54.324;10.126;2022-07-18T09:32:36;27.60;99.90
18131;DHT22;9191;54.324;10.126;2022-07-18T09:35:06;28.10;99.90
18131;DHT22;9191;54.324;10.126;2022-07-18T09:37:33;28.50;99.90
18131;DHT22;9191;54.324;10.126;2022-07-18T09:40:17;28.20;99.90
18131;DHT22;9191;54.324;10.126;2022-07-18T09:42:47;28.70;99.90
18131;DHT22;9191;54.324;10.126;2022-07-18T09:45:14;29.70;99.90
18131;DHT22;9191;54.324;10.126;2022-07-18T09:47:51;29.50;99.90
18131;DHT22;9191;54.324;10.126;2022-07-18T09:50:22;29.80;99.90
18131;DHT22;9191;54.324;10.126;2022-07-18T09:52:59;29.90;99.90
18131;DHT22;9191;54.324;10.126;2022-07-18T09:55:27;30.30;99.90
18131;DHT22;9191;54.324;10.126;2022-07-18T09:57:58;29.90;99.90
18131;DHT22;9191;54.324;10.126;2022-07-18T10:00:27;29.70;99.90
18131;DHT22;9191;54.324;10.126;2022-07-18T10:02:55;29.80;99.90
18131;DHT22;9191;54.324;10.126;2022-07-18T10:05:25;30.00;99.90
18131;DHT22;9191;54.324;10.126;2022-07-18T10:07:52;29.90;99.90
18131;DHT22;9191;54.324;10.126;2022-07-18T10:10:18;29.80;99.90
18131;DHT22;9191;54.324;10.126;2022-07-18T10:12:46;29.70;99.90
18131;DHT22;9191;54.324;10.126;2022-07-18T10:15:16;29.90;99.90
18131;DHT22;9191;54.324;10.126;2022-07-18T10:17:42;30.00;99.90
18131;DHT22;9191;54.324;10.126;2022-07-18T10:20:10;29.70;99.90
18131;DHT22;9191;54.324;10.126;2022-07-18T10:22:37;29.30;99.90
18131;DHT22;9191;54.324;10.126;2022-07-18T10:25:07;29.10;99.90
18131;DHT22;9191;54.324;10.126;2022-07-18T10:27:48;29.10;99.90
18131;DHT22;9191;54.324;10.126;2022-07-18T10:30:15;29.20;99.90
18131;DHT22;9191;54.324;10.126;2022-07-18T10:32:42;28.90;99.90
18131;DHT22;9191;54.324;10.126;2022-07-18T10:35:09;28.90;99.90
18131;DHT22;9191;54.324;10.126;2022-07-18T10:37:37;29.10;99.90
18131;DHT22;9191;54.324;10.126;2022-07-18T10:45:41;29.20;99.90
18131;DHT22;9191;54.324;10.126;2022-07-18T10:50:59;29.60;99.90
18131;DHT22;9191;54.324;10.126;2022-07-18T10:53:36;29.80;99.90
18131;DHT22;9191;54.324;10.126;2022-07-18T10:56:22;29.80;99.90
18131;DHT22;9191;54.324;10.126;2022-07-18T10:59:14;29.90;99.90
18131;DHT22;9191;54.324;10.126;2022-07-18T11:01:47;30.60;99.90
18131;DHT22;9191;54.324;10.126;2022-07-18T11:04:23;31.10;99.90
18131;DHT22;9191;54.324;10.126;2022-07-18T11:06:55;31.50;99.90
18131;DHT22;9191;54.324;10.126;2022-07-18T11:09:28;32.00;99.90
18131;DHT22;9191;54.324;10.126;2022-07-18T11:20:23;32.10;99.90
18131;DHT22;9191;54.324;10.126;2022-07-18T11:22:50;31.40;99.90
18131;DHT22;9191;54.324;10.126;2022-07-18T11:25:17;30.40;99.90
18131;DHT22;9191;54.324;10.126;2022-07-18T11:27:44;30.00;99.90
18131;DHT22;9191;54.324;10.126;2022-07-18T11:30:15;29.70;99.90
18131;DHT22;9191;54.324;10.126;2022-07-18T11:32:42;29.90;99.90
18131;DHT22;9191;54.324;10.126;2022-07-18T11:35:09;29.90;99.90
18131;DHT22;9191;54.324;10.126;2022-07-18T11:37:37;29.90;99.90
18131;DHT22;9191;54.324;10.126;2022-07-18T11:40:05;29.90;99.90
18131;DHT22;9191;54.324;10.126;2022-07-18T11:42:35;29.50;99.90
18131;DHT22;9191;54.324;10.126;2022-07-18T11:45:03;28.90;99.90
18131;DHT22;9191;54.324;10.126;2022-07-18T11:47:30;28.50;99.90
18131;DHT22;9191;54.324;10.126;2022-07-18T11:49:56;28.30;99.90
18131;DHT22;9191;54.324;10.126;2022-07-18T11:52:24;28.00;99.90
18131;DHT22;9191;54.324;10.126;2022-07-18T11:54:52;28.00;99.90
18131;DHT22;9191;54.324;10.126;2022-07-18T11:57:25;27.90;99.90
18131;DHT22;9191;54.324;10.126;2022-07-18T11:59:52;27.70;99.90
18131;DHT22;9191;54.324;10.126;2022-07-18T12:05:04;27.50;99.90
18131;DHT22;9191;54.324;10.126;2022-07-18T12:07:31;27.30;99.90
18131;DHT22;9191;54.324;10.126;2022-07-18T12:10:13;27.30;99.90
18131;DHT22;9191;54.324;10.126;2022-07-18T12:12:40;27.30;99.90
18131;DHT22;9191;54.324;10.126;2022-07-18T12:15:07;27.40;99.90
18131;DHT22;9191;54.324;10.126;2022-07-18T12:17:42;27.20;99.90
18131;DHT22;9191;54.324;10.126;2022-07-18T12:20:10;27.40;99.90
18131;DHT22;9191;54.324;10.126;2022-07-18T12:25:20;28.00;99.90
18131;DHT22;9191;54.324;10.126;2022-07-18T12:27:46;28.10;99.90
18131;DHT22;9191;54.324;10.126;2022-07-18T12:30:17;28.00;99.90
18131;DHT22;9191;54.324;10.126;2022-07-18T12:32:48;28.00;99.90
18131;DHT22;9191;54.324;10.126;2022-07-18T12:35:16;27.70;99.90
18131;DHT22;9191;54.324;10.126;2022-07-18T12:37:53;27.60;99.90
18131;DHT22;9191;54.324;10.126;2022-07-18T12:40:21;27.50;99.90
18131;DHT22;9191;54.324;10.126;2022-07-18T12:42:48;27.20;99.90
18131;DHT22;9191;54.324;10.126;2022-07-18T12:45:15;27.20;99.90
18131;DHT22;9191;54.324;10.126;2022-07-18T12:47:41;27.30;99.90
18131;DHT22;9191;54.324;10.126;2022-07-18T12:50:08;27.10;99.90
18131;DHT22;9191;54.324;10.126;2022-07-18T12:52:35;27.20;99.90
18131;DHT22;9191;54.324;10.126;2022-07-18T12:55:02;27.10;99.90
18131;DHT22;9191;54.324;10.126;2022-07-18T12:57:30;27.20;99.90
18131;DHT22;9191;54.324;10.126;2022-07-18T12:59:57;27.30;99.90
18131;DHT22;9191;54.324;10.126;2022-07-18T13:02:23;27.80;99.90
18131;DHT22;9191;54.324;10.126;2022-07-18T13:04:50;28.20;99.90
18131;DHT22;9191;54.324;10.126;2022-07-18T13:07:17;28.50;99.90
18131;DHT22;9191;54.324;10.126;2022-07-18T13:09:43;28.60;99.90
18131;DHT22;9191;54.324;10.126;2022-07-18T13:12:10;28.80;99.90
18131;DHT22;9191;54.324;10.126;2022-07-18T13:14:38;29.00;99.90
18131;DHT22;9191;54.324;10.126;2022-07-18T13:17:05;29.00;99.90
18131;DHT22;9191;54.324;10.126;2022-07-18T13:19:31;28.80;99.90
18131;DHT22;9191;54.324;10.126;2022-07-18T13:21:58;29.10;99.90
18131;DHT22;9191;54.324;10.126;2022-07-18T13:24:25;29.20;99.90
18131;DHT22;9191;54.324;10.126;2022-07-18T13:26:52;29.60;99.90
18131;DHT22;9191;54.324;10.126;2022-07-18T13:29:18;30.30;99.90
18131;DHT22;9191;54.324;10.126;2022-07-18T13:31:46;30.50;99.90
18131;DHT22;9191;54.324;10.126;2022-07-18T13:34:15;30.80;99.90
18131;DHT22;9191;54.324;10.126;2022-07-18T13:36:42;30.90;99.90
18131;DHT22;9191;54.324;10.126;2022-07-18T13:39:09;31.00;99.90
18131;DHT22;9191;54.324;10.126;2022-07-18T13:41:35;30.50;99.90
18131;DHT22;9191;54.324;10.126;2022-07-18T13:44:02;30.80;99.90
18131;DHT22;9191;54.324;10.126;2022-07-18T13:46:29;31.90;99.90
18131;DHT22;9191;54.324;10.126;2022-07-18T13:48:57;33.20;99.90
18131;DHT22;9191;54.324;10.126;2022-07-18T13:51:24;33.30;99.90
18131;DHT22;9191;54.324;10.126;2022-07-18T13:53:51;33.80;99.90
18131;DHT22;9191;54.324;10.126;2022-07-18T13:56:17;34.00;99.90
18131;DHT22;9191;54.324;10.126;2022-07-18T13:58:44;34.00;99.90
18131;DHT22;9191;54.324;10.126;2022-07-18T14:01:11;34.50;99.90
18131;DHT22;9191;54.324;10.126;2022-07-18T14:03:38;34.40;99.90
18131;DHT22;9191;54.324;10.126;2022-07-18T14:06:06;34.70;99.90
18131;DHT22;9191;54.324;10.126;2022-07-18T14:08:33;34.40;99.90
18131;DHT22;9191;54.324;10.126;2022-07-18T14:10:59;33.10;99.90
18131;DHT22;9191;54.324;10.126;2022-07-18T14:13:26;33.30;99.90
18131;DHT22;9191;54.324;10.126;2022-07-18T14:15:53;33.30;99.90
18131;DHT22;9191;54.324;10.126;2022-07-18T14:18:20;33.10;99.90
18131;DHT22;9191;54.324;10.126;2022-07-18T14:20:47;32.70;99.90
18131;DHT22;9191;54.324;10.126;2022-07-18T14:23:15;32.60;99.90
18131;DHT22;9191;54.324;10.126;2022-07-18T14:25:42;31.70;99.90
18131;DHT22;9191;54.324;10.126;2022-07-18T14:28:08;30.70;99.90
18131;DHT22;9191;54.324;10.126;2022-07-18T14:30:35;30.30;99.90
18131;DHT22;9191;54.324;10.126;2022-07-18T14:33:02;29.80;99.90
18131;DHT22;9191;54.324;10.126;2022-07-18T14:35:29;29.30;99.90
18131;DHT22;9191;54.324;10.126;2022-07-18T14:37:55;29.40;99.90
18131;DHT22;9191;54.324;10.126;2022-07-18T14:40:24;29.70;99.90
18131;DHT22;9191;54.324;10.126;2022-07-18T14:42:50;29.90;99.90
18131;DHT22;9191;54.324;10.126;2022-07-18T14:45:17;30.20;99.90
18131;DHT22;9191;54.324;10.126;2022-07-18T14:47:44;30.30;99.90
18131;DHT22;9191;54.324;10.126;2022-07-18T14:50:11;29.90;99.90
18131;DHT22;9191;54.324;10.126;2022-07-18T14:52:38;29.90;99.90
18131;DHT22;9191;54.324;10.126;2022-07-18T14:55:05;29.50;99.90
18131;DHT22;9191;54.324;10.126;2022-07-18T14:57:33;29.30;99.90
18131;DHT22;9191;54.324;10.126;2022-07-18T15:00:00;29.00;99.90
18131;DHT22;9191;54.324;10.126;2022-07-18T15:02:26;29.00;99.90
18131;DHT22;9191;54.324;10.126;2022-07-18T15:04:53;29.20;99.90
18131;DHT22;9191;54.324;10.126;2022-07-18T15:07:20;29.30;99.90
18131;DHT22;9191;54.324;10.126;2022-07-18T15:09:46;28.90;99.90
18131;DHT22;9191;54.324;10.126;2022-07-18T15:12:13;28.80;99.90
18131;DHT22;9191;54.324;10.126;2022-07-18T15:14:41;28.60;99.90
18131;DHT22;9191;54.324;10.126;2022-07-18T15:17:08;28.70;99.90
18131;DHT22;9191;54.324;10.126;2022-07-18T15:19:35;28.80;99.90
18131;DHT22;9191;54.324;10.126;2022-07-18T15:22:01;28.70;99.90
18131;DHT22;9191;54.324;10.126;2022-07-18T15:24:30;28.60;99.90
18131;DHT22;9191;54.324;10.126;2022-07-18T15:26:56;28.50;99.90
18131;DHT22;9191;54.324;10.126;2022-07-18T15:29:23;28.40;99.90
18131;DHT22;9191;54.324;10.126;2022-07-18T15:31:51;28.50;99.90
18131;DHT22;9191;54.324;10.126;2022-07-18T15:34:18;28.50;99.90
18131;DHT22;9191;54.324;10.126;2022-07-18T15:36:44;28.30;99.90
18131;DHT22;9191;54.324;10.126;2022-07-18T15:39:11;28.30;99.90
18131;DHT22;9191;54.324;10.126;2022-07-18T15:41:38;28.20;99.90
18131;DHT22;9191;54.324;10.126;2022-07-18T15:44:05;28.30;99.90
18131;DHT22;9191;54.324;10.126;2022-07-18T15:46:34;28.20;99.90
18131;DHT22;9191;54.324;10.126;2022-07-18T15:49:02;28.00;99.90
18131;DHT22;9191;54.324;10.126;2022-07-18T15:51:29;27.90;99.90
18131;DHT22;9191;54.324;10.126;2022-07-18T15:53:55;27.90;99.90
18131;DHT22;9191;54.324;10.126;2022-07-18T15:56:22;27.90;99.90
18131;DHT22;9191;54.324;10.126;2022-07-18T15:58:48;28.00;99.90